sensor_id;sensor_type;location;lat;lon;timestamp;P1;durP1;ratioP1;P2;durP2;ratioP2
9334;SDS011;4706;41.844;26.082;2023-04-08T00:00:38;16.30;;;14.57;;
9334;SDS011;4706;41.844;26.082;2023-04-08T00:03:04;17.38;;;15.68;;
9334;SDS011;4706;41.844;26.082;2023-04-08T00:05:30;17.35;;;15.63;;
9334;SDS011;4706;41.844;26.082;2023-04-08T00:07:55;18.40;;;16.50;;
9334;SDS011;4706;41.844;26.082;2023-04-08T00:10:21;21.33;;;18.27;;
9334;SDS011;4706;41.844;26.082;2023-04-08T00:12:46;19.50;;;17.55;;
9334;SDS011;4706;41.844;26.082;2023-04-08T00:15:12;29.08;;;22.92;;
9334;SDS011;4706;41.844;26.082;2023-04-08T00:17:38;21.30;;;18.52;;
9334;SDS011;4706;41.844;26.082;2023-04-08T00:20:04;17.90;;;16.17;;
9334;SDS011;4706;41.844;26.082;2023-04-08T00:22:30;16.70;;;15.07;;
9334;SDS011;4706;41.844;26.082;2023-04-08T00:24:56;22.23;;;19.55;;
9334;SDS011;4706;41.844;26.082;2023-04-08T00:27:22;22.08;;;19.70;;
9334;SDS011;4706;41.844;26.082;2023-04-08T00:29:50;19.02;;;17.13;;
9334;SDS011;4706;41.844;26.082;2023-04-08T00:32:15;17.88;;;16.13;;
9334;SDS011;4706;41.844;26.082;2023-04-08T00:34:41;19.88;;;17.98;;
9334;SDS011;4706;41.844;26.082;2023-04-08T00:37:07;21.90;;;19.88;;
9334;SDS011;4706;41.844;26.082;2023-04-08T00:39:32;17.45;;;15.65;;
9334;SDS011;4706;41.844;26.082;2023-04-08T00:41:58;16.92;;;14.70;;
9334;SDS011;4706;41.844;26.082;2023-04-08T00:44:26;17.45;;;15.18;;
9334;SDS011;4706;41.844;26.082;2023-04-08T00:46:52;15.93;;;14.40;;
9334;SDS011;4706;41.844;26.082;2023-04-08T00:49:17;15.70;;;14.18;;
9334;SDS011;4706;41.844;26.082;2023-04-08T00:51:43;16.42;;;14.93;;
9334;SDS011;4706;41.844;26.082;2023-04-08T00:54:08;16.17;;;14.68;;
9334;SDS011;4706;41.844;26.082;2023-04-08T00:56:34;17.20;;;15.48;;
9334;SDS011;4706;41.844;26.082;2023-04-08T00:59:00;19.30;;;17.40;;
9334;SDS011;4706;41.844;26.082;2023-04-08T01:04:20;15.90;;;14.43;;
9334;SDS011;4706;41.844;26.082;2023-04-08T01:06:55;16.63;;;14.93;;
9334;SDS011;4706;41.844;26.082;2023-04-08T01:09:27;16.70;;;15.13;;
9334;SDS011;4706;41.844;26.082;2023-04-08T01:11:56;16.85;;;15.18;;
9334;SDS011;4706;41.844;26.082;2023-04-08T01:14:26;16.60;;;14.98;;
9334;SDS011;4706;41.844;26.082;2023-04-08T01:16:54;17.42;;;15.73;;
9334;SDS011;4706;41.844;26.082;2023-04-08T01:19:26;16.25;;;14.65;;
9334;SDS011;4706;41.844;26.082;2023-04-08T01:21:59;18.35;;;16.55;;
9334;SDS011;4706;41.844;26.082;2023-04-08T01:24:30;18.27;;;16.63;;
9334;SDS011;4706;41.844;26.082;2023-04-08T01:27:00;18.08;;;16.20;;
9334;SDS011;4706;41.844;26.082;2023-04-08T01:29:27;19.15;;;17.25;;
9334;SDS011;4706;41.844;26.082;2023-04-08T01:31:54;19.15;;;17.23;;
9334;SDS011;4706;41.844;26.082;2023-04-08T01:34:21;20.35;;;18.35;;
9334;SDS011;4706;41.844;26.082;2023-04-08T01:36:48;18.42;;;16.65;;
9334;SDS011;4706;41.844;26.082;2023-04-08T01:39:15;18.33;;;16.42;;
9334;SDS011;4706;41.844;26.082;2023-04-08T01:41:43;16.70;;;15.00;;
9334;SDS011;4706;41.844;26.082;2023-04-08T01:44:10;16.92;;;15.40;;
9334;SDS011;4706;41.844;26.082;2023-04-08T01:46:37;16.42;;;14.82;;
9334;SDS011;4706;41.844;26.082;2023-04-08T01:49:05;18.15;;;15.93;;
9334;SDS011;4706;41.844;26.082;2023-04-08T01:51:32;17.80;;;16.02;;
9334;SDS011;4706;41.844;26.082;2023-04-08T01:53:58;16.80;;;15.20;;
9334;SDS011;4706;41.844;26.082;2023-04-08T01:56:24;17.27;;;15.57;;
9334;SDS011;4706;41.844;26.082;2023-04-08T01:58:53;17.52;;;15.90;;
9334;SDS011;4706;41.844;26.082;2023-04-08T02:01:22;17.07;;;15.47;;
9334;SDS011;4706;41.844;26.082;2023-04-08T02:03:50;17.45;;;15.75;;
9334;SDS011;4706;41.844;26.082;2023-04-08T02:06:21;16.95;;;15.40;;
9334;SDS011;4706;41.844;26.082;2023-04-08T02:08:47;18.15;;;16.35;;
9334;SDS011;4706;41.844;26.082;2023-04-08T02:11:14;18.83;;;17.02;;
9334;SDS011;4706;41.844;26.082;2023-04-08T02:13:39;18.15;;;16.35;;
9334;SDS011;4706;41.844;26.082;2023-04-08T02:16:08;18.30;;;16.50;;
9334;SDS011;4706;41.844;26.082;2023-04-08T02:18:42;24.37;;;21.87;;
9334;SDS011;4706;41.844;26.082;2023-04-08T02:21:16;19.30;;;17.35;;
9334;SDS011;4706;41.844;26.082;2023-04-08T02:23:45;18.10;;;16.40;;
9334;SDS011;4706;41.844;26.082;2023-04-08T02:26:14;19.17;;;17.25;;
9334;SDS011;4706;41.844;26.082;2023-04-08T02:28:41;17.73;;;16.05;;
9334;SDS011;4706;41.844;26.082;2023-04-08T02:31:09;17.17;;;15.57;;
9334;SDS011;4706;41.844;26.082;2023-04-08T02:33:38;18.45;;;16.58;;
9334;SDS011;4706;41.844;26.082;2023-04-08T02:36:05;19.00;;;17.20;;
9334;SDS011;4706;41.844;26.082;2023-04-08T02:38:32;17.75;;;15.93;;
9334;SDS011;4706;41.844;26.082;2023-04-08T02:40:57;26.73;;;23.67;;
9334;SDS011;4706;41.844;26.082;2023-04-08T02:43:23;22.10;;;19.80;;
9334;SDS011;4706;41.844;26.082;2023-04-08T02:45:55;28.17;;;25.25;;
9334;SDS011;4706;41.844;26.082;2023-04-08T02:48:21;21.48;;;19.33;;
9334;SDS011;4706;41.844;26.082;2023-04-08T02:50:46;22.33;;;20.02;;
9334;SDS011;4706;41.844;26.082;2023-04-08T02:53:12;22.55;;;20.35;;
9334;SDS011;4706;41.844;26.082;2023-04-08T02:55:37;22.75;;;20.35;;
9334;SDS011;4706;41.844;26.082;2023-04-08T02:58:04;21.50;;;19.40;;
9334;SDS011;4706;41.844;26.082;2023-04-08T03:00:30;22.08;;;19.85;;
9334;SDS011;4706;41.844;26.082;2023-04-08T03:02:55;19.00;;;16.58;;
9334;SDS011;4706;41.844;26.082;2023-04-08T03:05:21;18.27;;;16.58;;
9334;SDS011;4706;41.844;26.082;2023-04-08T03:07:47;18.50;;;16.73;;
9334;SDS011;4706;41.844;26.082;2023-04-08T03:10:12;19.10;;;16.75;;
9334;SDS011;4706;41.844;26.082;2023-04-08T03:12:38;21.55;;;19.38;;
9334;SDS011;4706;41.844;26.082;2023-04-08T03:15:03;21.08;;;18.92;;
9334;SDS011;4706;41.844;26.082;2023-04-08T03:17:30;22.95;;;20.55;;
9334;SDS011;4706;41.844;26.082;2023-04-08T03:19:58;22.30;;;20.02;;
9334;SDS011;4706;41.844;26.082;2023-04-08T03:22:24;23.50;;;20.83;;
9334;SDS011;4706;41.844;26.082;2023-04-08T03:24:50;26.83;;;24.02;;
9334;SDS011;4706;41.844;26.082;2023-04-08T03:27:16;25.85;;;22.10;;
9334;SDS011;4706;41.844;26.082;2023-04-08T03:29:41;25.20;;;22.60;;
9334;SDS011;4706;41.844;26.082;2023-04-08T03:32:06;37.47;;;33.00;;
9334;SDS011;4706;41.844;26.082;2023-04-08T03:34:33;33.00;;;29.40;;
9334;SDS011;4706;41.844;26.082;2023-04-08T03:36:59;34.53;;;27.88;;
9334;SDS011;4706;41.844;26.082;2023-04-08T03:39:25;31.70;;;27.50;;
9334;SDS011;4706;41.844;26.082;2023-04-08T03:41:50;29.15;;;25.38;;
9334;SDS011;4706;41.844;26.082;2023-04-08T03:44:16;26.10;;;21.92;;
9334;SDS011;4706;41.844;26.082;2023-04-08T03:46:41;39.20;;;27.63;;
9334;SDS011;4706;41.844;26.082;2023-04-08T03:49:07;46.83;;;33.40;;
9334;SDS011;4706;41.844;26.082;2023-04-08T03:51:32;47.03;;;33.33;;
9334;SDS011;4706;41.844;26.082;2023-04-08T03:53:58;32.05;;;26.15;;
9334;SDS011;4706;41.844;26.082;2023-04-08T03:56:23;31.58;;;26.13;;
9334;SDS011;4706;41.844;26.082;2023-04-08T03:58:49;25.17;;;22.48;;
9334;SDS011;4706;41.844;26.082;2023-04-08T04:01:15;22.58;;;20.30;;
9334;SDS011;4706;41.844;26.082;2023-04-08T04:03:40;22.10;;;19.80;;
9334;SDS011;4706;41.844;26.082;2023-04-08T04:06:06;19.42;;;17.52;;
9334;SDS011;4706;41.844;26.082;2023-04-08T04:08:31;20.40;;;18.30;;
9334;SDS011;4706;41.844;26.082;2023-04-08T04:10:59;20.60;;;18.60;;
9334;SDS011;4706;41.844;26.082;2023-04-08T04:13:25;20.90;;;19.00;;
9334;SDS011;4706;41.844;26.082;2023-04-08T04:15:51;23.02;;;20.63;;
9334;SDS011;4706;41.844;26.082;2023-04-08T04:18:16;23.48;;;21.08;;
9334;SDS011;4706;41.844;26.082;2023-04-08T04:20:42;23.45;;;21.10;;
9334;SDS011;4706;41.844;26.082;2023-04-08T04:23:08;24.33;;;21.85;;
9334;SDS011;4706;41.844;26.082;2023-04-08T04:25:33;24.05;;;21.73;;
9334;SDS011;4706;41.844;26.082;2023-04-08T04:27:59;22.23;;;20.13;;
9334;SDS011;4706;41.844;26.082;2023-04-08T04:30:25;23.40;;;21.17;;
9334;SDS011;4706;41.844;26.082;2023-04-08T04:32:51;26.95;;;24.35;;
9334;SDS011;4706;41.844;26.082;2023-04-08T04:35:17;33.00;;;28.70;;
9334;SDS011;4706;41.844;26.082;2023-04-08T04:37:43;29.10;;;26.13;;
9334;SDS011;4706;41.844;26.082;2023-04-08T04:40:08;30.25;;;27.10;;
9334;SDS011;4706;41.844;26.082;2023-04-08T04:42:34;31.58;;;28.20;;
9334;SDS011;4706;41.844;26.082;2023-04-08T04:45:00;35.47;;;30.98;;
9334;SDS011;4706;41.844;26.082;2023-04-08T04:47:25;33.00;;;29.77;;
9334;SDS011;4706;41.844;26.082;2023-04-08T04:49:51;35.22;;;31.38;;
9334;SDS011;4706;41.844;26.082;2023-04-08T04:52:16;34.78;;;30.15;;
9334;SDS011;4706;41.844;26.082;2023-04-08T04:54:42;29.65;;;26.65;;
9334;SDS011;4706;41.844;26.082;2023-04-08T04:57:07;29.23;;;24.10;;
9334;SDS011;4706;41.844;26.082;2023-04-08T04:59:33;30.55;;;27.27;;
9334;SDS011;4706;41.844;26.082;2023-04-08T05:01:58;27.55;;;24.85;;
9334;SDS011;4706;41.844;26.082;2023-04-08T05:04:24;26.80;;;23.98;;
9334;SDS011;4706;41.844;26.082;2023-04-08T05:06:50;24.48;;;22.08;;
9334;SDS011;4706;41.844;26.082;2023-04-08T05:09:16;29.67;;;26.90;;
9334;SDS011;4706;41.844;26.082;2023-04-08T05:11:41;28.73;;;26.10;;
9334;SDS011;4706;41.844;26.082;2023-04-08T05:14:07;31.38;;;28.00;;
9334;SDS011;4706;41.844;26.082;2023-04-08T05:16:33;27.77;;;25.02;;
9334;SDS011;4706;41.844;26.082;2023-04-08T05:18:58;29.35;;;24.85;;
9334;SDS011;4706;41.844;26.082;2023-04-08T05:21:24;35.95;;;30.77;;
9334;SDS011;4706;41.844;26.082;2023-04-08T05:23:50;44.60;;;39.95;;
9334;SDS011;4706;41.844;26.082;2023-04-08T05:26:18;43.47;;;39.10;;
9334;SDS011;4706;41.844;26.082;2023-04-08T05:28:47;42.00;;;37.83;;
9334;SDS011;4706;41.844;26.082;2023-04-08T05:31:16;35.83;;;32.22;;
9334;SDS011;4706;41.844;26.082;2023-04-08T05:33:42;34.85;;;31.45;;
9334;SDS011;4706;41.844;26.082;2023-04-08T05:36:09;38.08;;;34.42;;
9334;SDS011;4706;41.844;26.082;2023-04-08T05:38:35;37.17;;;33.65;;
9334;SDS011;4706;41.844;26.082;2023-04-08T05:41:01;36.40;;;32.90;;
9334;SDS011;4706;41.844;26.082;2023-04-08T05:43:27;36.45;;;32.65;;
9334;SDS011;4706;41.844;26.082;2023-04-08T05:45:52;36.75;;;33.05;;
9334;SDS011;4706;41.844;26.082;2023-04-08T05:48:18;35.63;;;32.03;;
9334;SDS011;4706;41.844;26.082;2023-04-08T05:50:44;34.53;;;30.98;;
9334;SDS011;4706;41.844;26.082;2023-04-08T05:53:10;31.40;;;28.00;;
9334;SDS011;4706;41.844;26.082;2023-04-08T05:55:36;28.77;;;25.73;;
9334;SDS011;4706;41.844;26.082;2023-04-08T05:58:01;30.15;;;27.08;;
9334;SDS011;4706;41.844;26.082;2023-04-08T06:00:27;32.05;;;28.85;;
9334;SDS011;4706;41.844;26.082;2023-04-08T06:02:52;31.13;;;28.13;;
9334;SDS011;4706;41.844;26.082;2023-04-08T06:05:18;33.60;;;30.15;;
9334;SDS011;4706;41.844;26.082;2023-04-08T06:07:43;27.17;;;24.23;;
9334;SDS011;4706;41.844;26.082;2023-04-08T06:10:09;23.15;;;21.00;;
9334;SDS011;4706;41.844;26.082;2023-04-08T06:12:35;22.50;;;19.95;;
9334;SDS011;4706;41.844;26.082;2023-04-08T06:15:05;19.45;;;17.45;;
9334;SDS011;4706;41.844;26.082;2023-04-08T06:17:31;20.35;;;18.25;;
9334;SDS011;4706;41.844;26.082;2023-04-08T06:19:57;18.08;;;16.30;;
9334;SDS011;4706;41.844;26.082;2023-04-08T06:22:22;18.55;;;16.75;;
9334;SDS011;4706;41.844;26.082;2023-04-08T06:24:48;17.73;;;15.80;;
9334;SDS011;4706;41.844;26.082;2023-04-08T06:27:14;19.30;;;16.35;;
9334;SDS011;4706;41.844;26.082;2023-04-08T06:29:40;17.50;;;15.85;;
9334;SDS011;4706;41.844;26.082;2023-04-08T06:32:05;17.88;;;16.08;;
9334;SDS011;4706;41.844;26.082;2023-04-08T06:34:31;17.27;;;15.57;;
9334;SDS011;4706;41.844;26.082;2023-04-08T06:36:56;16.92;;;15.25;;
9334;SDS011;4706;41.844;26.082;2023-04-08T06:39:22;15.45;;;14.00;;
9334;SDS011;4706;41.844;26.082;2023-04-08T06:41:48;18.23;;;15.70;;
9334;SDS011;4706;41.844;26.082;2023-04-08T06:44:13;16.15;;;14.55;;
9334;SDS011;4706;41.844;26.082;2023-04-08T06:46:39;15.07;;;13.68;;
9334;SDS011;4706;41.844;26.082;2023-04-08T06:49:04;15.05;;;13.57;;
9334;SDS011;4706;41.844;26.082;2023-04-08T06:51:31;15.00;;;13.45;;
9334;SDS011;4706;41.844;26.082;2023-04-08T06:53:57;14.98;;;13.25;;
9334;SDS011;4706;41.844;26.082;2023-04-08T06:56:22;15.13;;;13.43;;
9334;SDS011;4706;41.844;26.082;2023-04-08T06:58:50;15.27;;;13.73;;
9334;SDS011;4706;41.844;26.082;2023-04-08T07:01:16;15.32;;;13.57;;
9334;SDS011;4706;41.844;26.082;2023-04-08T07:03:42;14.63;;;13.23;;
9334;SDS011;4706;41.844;26.082;2023-04-08T07:06:07;15.05;;;13.65;;
9334;SDS011;4706;41.844;26.082;2023-04-08T07:08:33;14.20;;;12.93;;
9334;SDS011;4706;41.844;26.082;2023-04-08T07:10:59;14.57;;;13.18;;
9334;SDS011;4706;41.844;26.082;2023-04-08T07:13:24;16.50;;;13.23;;
9334;SDS011;4706;41.844;26.082;2023-04-08T07:15:50;14.18;;;12.85;;
9334;SDS011;4706;41.844;26.082;2023-04-08T07:18:16;14.48;;;12.90;;
9334;SDS011;4706;41.844;26.082;2023-04-08T07:20:41;12.85;;;11.55;;
9334;SDS011;4706;41.844;26.082;2023-04-08T07:23:07;14.85;;;13.43;;
9334;SDS011;4706;41.844;26.082;2023-04-08T07:25:32;14.73;;;13.38;;
9334;SDS011;4706;41.844;26.082;2023-04-08T07:28:01;17.05;;;13.60;;
9334;SDS011;4706;41.844;26.082;2023-04-08T07:30:27;15.57;;;14.07;;
9334;SDS011;4706;41.844;26.082;2023-04-08T07:32:52;16.40;;;14.82;;
9334;SDS011;4706;41.844;26.082;2023-04-08T07:35:19;17.73;;;15.93;;
9334;SDS011;4706;41.844;26.082;2023-04-08T07:37:49;17.20;;;15.60;;
9334;SDS011;4706;41.844;26.082;2023-04-08T07:40:16;16.52;;;14.82;;
9334;SDS011;4706;41.844;26.082;2023-04-08T07:42:41;16.67;;;15.07;;
9334;SDS011;4706;41.844;26.082;2023-04-08T07:45:07;17.02;;;15.45;;
9334;SDS011;4706;41.844;26.082;2023-04-08T07:47:33;16.63;;;15.02;;
9334;SDS011;4706;41.844;26.082;2023-04-08T07:49:58;16.38;;;14.75;;
9334;SDS011;4706;41.844;26.082;2023-04-08T07:52:24;17.27;;;15.73;;
9334;SDS011;4706;41.844;26.082;2023-04-08T07:54:50;14.98;;;13.50;;
9334;SDS011;4706;41.844;26.082;2023-04-08T07:57:16;14.02;;;12.63;;
9334;SDS011;4706;41.844;26.082;2023-04-08T07:59:41;15.57;;;13.90;;
9334;SDS011;4706;41.844;26.082;2023-04-08T08:02:07;17.92;;;15.95;;
9334;SDS011;4706;41.844;26.082;2023-04-08T08:04:32;17.90;;;15.48;;
9334;SDS011;4706;41.844;26.082;2023-04-08T08:06:58;17.90;;;16.00;;
9334;SDS011;4706;41.844;26.082;2023-04-08T08:09:23;13.73;;;12.43;;
9334;SDS011;4706;41.844;26.082;2023-04-08T08:11:49;14.15;;;12.75;;
9334;SDS011;4706;41.844;26.082;2023-04-08T08:14:14;14.10;;;12.63;;
9334;SDS011;4706;41.844;26.082;2023-04-08T08:16:40;13.25;;;12.05;;
9334;SDS011;4706;41.844;26.082;2023-04-08T08:19:06;13.60;;;12.30;;
9334;SDS011;4706;41.844;26.082;2023-04-08T08:21:35;14.32;;;13.07;;
9334;SDS011;4706;41.844;26.082;2023-04-08T08:24:01;12.85;;;11.63;;
9334;SDS011;4706;41.844;26.082;2023-04-08T08:26:27;12.75;;;11.52;;
9334;SDS011;4706;41.844;26.082;2023-04-08T08:28:52;11.10;;;10.10;;
9334;SDS011;4706;41.844;26.082;2023-04-08T08:31:18;12.68;;;11.45;;
9334;SDS011;4706;41.844;26.082;2023-04-08T08:33:44;14.05;;;12.55;;
9334;SDS011;4706;41.844;26.082;2023-04-08T08:36:10;11.77;;;10.63;;
9334;SDS011;4706;41.844;26.082;2023-04-08T08:38:36;11.80;;;10.60;;
9334;SDS011;4706;41.844;26.082;2023-04-08T08:41:02;10.70;;;9.70;;
9334;SDS011;4706;41.844;26.082;2023-04-08T08:43:28;11.48;;;10.38;;
9334;SDS011;4706;41.844;26.082;2023-04-08T08:45:57;11.50;;;10.40;;
9334;SDS011;4706;41.844;26.082;2023-04-08T08:48:23;14.15;;;12.75;;
9334;SDS011;4706;41.844;26.082;2023-04-08T08:50:49;13.60;;;12.38;;
9334;SDS011;4706;41.844;26.082;2023-04-08T08:53:15;12.65;;;11.35;;
9334;SDS011;4706;41.844;26.082;2023-04-08T08:55:41;11.82;;;10.73;;
9334;SDS011;4706;41.844;26.082;2023-04-08T08:58:07;12.40;;;11.30;;
9334;SDS011;4706;41.844;26.082;2023-04-08T09:00:36;13.27;;;11.98;;
9334;SDS011;4706;41.844;26.082;2023-04-08T09:03:21;14.52;;;13.18;;
9334;SDS011;4706;41.844;26.082;2023-04-08T09:05:47;12.82;;;11.63;;
9334;SDS011;4706;41.844;26.082;2023-04-08T09:11:13;12.70;;;11.50;;
9334;SDS011;4706;41.844;26.082;2023-04-08T09:13:41;13.45;;;12.05;;
9334;SDS011;4706;41.844;26.082;2023-04-08T09:16:11;12.25;;;11.05;;
9334;SDS011;4706;41.844;26.082;2023-04-08T09:18:39;13.18;;;11.98;;
9334;SDS011;4706;41.844;26.082;2023-04-08T09:21:08;13.50;;;12.10;;
9334;SDS011;4706;41.844;26.082;2023-04-08T09:23:42;12.50;;;11.32;;
9334;SDS011;4706;41.844;26.082;2023-04-08T09:26:11;11.95;;;10.80;;
9334;SDS011;4706;41.844;26.082;2023-04-08T09:28:39;14.68;;;12.48;;
9334;SDS011;4706;41.844;26.082;2023-04-08T09:31:39;12.48;;;11.20;;
9334;SDS011;4706;41.844;26.082;2023-04-08T09:36:50;12.93;;;11.65;;
9334;SDS011;4706;41.844;26.082;2023-04-08T09:39:17;11.70;;;10.63;;
9334;SDS011;4706;41.844;26.082;2023-04-08T09:41:43;11.32;;;10.15;;
9334;SDS011;4706;41.844;26.082;2023-04-08T09:44:09;9.40;;;8.60;;
9334;SDS011;4706;41.844;26.082;2023-04-08T09:57:36;10.75;;;9.75;;
9334;SDS011;4706;41.844;26.082;2023-04-08T10:00:09;10.68;;;9.68;;
9334;SDS011;4706;41.844;26.082;2023-04-08T10:05:44;9.07;;;8.38;;
9334;SDS011;4706;41.844;26.082;2023-04-08T10:08:11;9.70;;;8.82;;
9334;SDS011;4706;41.844;26.082;2023-04-08T10:10:38;10.40;;;9.13;;
9334;SDS011;4706;41.844;26.082;2023-04-08T10:13:05;9.27;;;8.38;;
9334;SDS011;4706;41.844;26.082;2023-04-08T10:15:32;9.27;;;8.38;;
9334;SDS011;4706;41.844;26.082;2023-04-08T10:23:03;8.63;;;7.93;;
9334;SDS011;4706;41.844;26.082;2023-04-08T10:25:31;9.40;;;8.60;;
9334;SDS011;4706;41.844;26.082;2023-04-08T10:36:09;7.40;;;6.70;;
9334;SDS011;4706;41.844;26.082;2023-04-08T10:38:36;7.35;;;6.65;;
9334;SDS011;4706;41.844;26.082;2023-04-08T10:41:02;7.32;;;6.63;;
9334;SDS011;4706;41.844;26.082;2023-04-08T10:43:32;7.32;;;6.70;;
9334;SDS011;4706;41.844;26.082;2023-04-08T10:45:58;7.57;;;6.97;;
9334;SDS011;4706;41.844;26.082;2023-04-08T10:48:24;8.90;;;7.45;;
9334;SDS011;4706;41.844;26.082;2023-04-08T10:50:54;7.65;;;7.05;;
9334;SDS011;4706;41.844;26.082;2023-04-08T10:53:25;7.40;;;6.70;;
9334;SDS011;4706;41.844;26.082;2023-04-08T10:58:52;6.97;;;6.38;;
9334;SDS011;4706;41.844;26.082;2023-04-08T11:01:20;6.63;;;6.07;;
9334;SDS011;4706;41.844;26.082;2023-04-08T11:03:46;8.15;;;7.45;;
9334;SDS011;4706;41.844;26.082;2023-04-08T11:06:13;8.00;;;7.20;;
9334;SDS011;4706;41.844;26.082;2023-04-08T11:08:39;6.72;;;6.22;;
9334;SDS011;4706;41.844;26.082;2023-04-08T11:11:06;6.57;;;6.03;;
9334;SDS011;4706;41.844;26.082;2023-04-08T11:13:33;6.55;;;6.05;;
9334;SDS011;4706;41.844;26.082;2023-04-08T11:16:00;6.93;;;6.43;;
9334;SDS011;4706;41.844;26.082;2023-04-08T11:18:29;9.00;;;7.57;;
9334;SDS011;4706;41.844;26.082;2023-04-08T11:20:55;7.80;;;7.13;;
9334;SDS011;4706;41.844;26.082;2023-04-08T11:23:23;7.95;;;7.13;;
9334;SDS011;4706;41.844;26.082;2023-04-08T11:25:49;34.58;;;8.65;;
9334;SDS011;4706;41.844;26.082;2023-04-08T11:28:15;6.72;;;5.97;;
9334;SDS011;4706;41.844;26.082;2023-04-08T11:30:41;6.07;;;5.47;;
9334;SDS011;4706;41.844;26.082;2023-04-08T11:33:07;7.40;;;6.80;;
9334;SDS011;4706;41.844;26.082;2023-04-08T11:35:33;8.00;;;6.55;;
9334;SDS011;4706;41.844;26.082;2023-04-08T11:37:59;8.30;;;7.60;;
9334;SDS011;4706;41.844;26.082;2023-04-08T11:40:28;7.55;;;6.95;;
9334;SDS011;4706;41.844;26.082;2023-04-08T11:42:54;7.78;;;7.07;;
9334;SDS011;4706;41.844;26.082;2023-04-08T11:45:20;7.60;;;7.00;;
9334;SDS011;4706;41.844;26.082;2023-04-08T11:47:46;7.20;;;6.60;;
9334;SDS011;4706;41.844;26.082;2023-04-08T11:50:12;7.78;;;6.65;;
9334;SDS011;4706;41.844;26.082;2023-04-08T11:52:47;7.68;;;7.03;;
9334;SDS011;4706;41.844;26.082;2023-04-08T11:55:27;9.20;;;8.23;;
9334;SDS011;4706;41.844;26.082;2023-04-08T11:57:55;6.53;;;5.93;;
9334;SDS011;4706;41.844;26.082;2023-04-08T12:00:22;6.80;;;6.20;;
9334;SDS011;4706;41.844;26.082;2023-04-08T12:02:48;6.65;;;6.15;;
9334;SDS011;4706;41.844;26.082;2023-04-08T12:05:15;6.60;;;6.10;;
9334;SDS011;4706;41.844;26.082;2023-04-08T12:07:41;5.40;;;5.00;;
9334;SDS011;4706;41.844;26.082;2023-04-08T12:10:07;6.10;;;5.60;;
9334;SDS011;4706;41.844;26.082;2023-04-08T12:12:36;8.55;;;7.75;;
9334;SDS011;4706;41.844;26.082;2023-04-08T12:15:02;5.57;;;5.18;;
9334;SDS011;4706;41.844;26.082;2023-04-08T12:17:29;5.65;;;5.15;;
9334;SDS011;4706;41.844;26.082;2023-04-08T12:19:54;5.22;;;4.82;;
9334;SDS011;4706;41.844;26.082;2023-04-08T12:22:21;4.60;;;4.30;;
9334;SDS011;4706;41.844;26.082;2023-04-08T12:24:47;5.40;;;5.00;;
9334;SDS011;4706;41.844;26.082;2023-04-08T12:27:13;4.63;;;4.22;;
9334;SDS011;4706;41.844;26.082;2023-04-08T12:29:38;4.97;;;4.57;;
9334;SDS011;4706;41.844;26.082;2023-04-08T12:32:04;5.05;;;4.70;;
9334;SDS011;4706;41.844;26.082;2023-04-08T12:34:30;4.20;;;3.90;;
9334;SDS011;4706;41.844;26.082;2023-04-08T12:36:56;5.20;;;3.90;;
9334;SDS011;4706;41.844;26.082;2023-04-08T12:39:22;3.95;;;3.65;;
9334;SDS011;4706;41.844;26.082;2023-04-08T12:41:48;4.63;;;4.20;;
9334;SDS011;4706;41.844;26.082;2023-04-08T12:44:14;4.55;;;4.25;;
9334;SDS011;4706;41.844;26.082;2023-04-08T12:46:40;5.18;;;4.78;;
9334;SDS011;4706;41.844;26.082;2023-04-08T12:49:05;4.72;;;4.32;;
9334;SDS011;4706;41.844;26.082;2023-04-08T12:51:31;3.80;;;3.50;;
9334;SDS011;4706;41.844;26.082;2023-04-08T12:53:56;4.30;;;4.00;;
9334;SDS011;4706;41.844;26.082;2023-04-08T12:56:23;3.75;;;3.50;;
9334;SDS011;4706;41.844;26.082;2023-04-08T12:58:49;4.57;;;4.20;;
9334;SDS011;4706;41.844;26.082;2023-04-08T13:01:15;4.43;;;4.10;;
9334;SDS011;4706;41.844;26.082;2023-04-08T13:03:40;4.60;;;4.30;;
9334;SDS011;4706;41.844;26.082;2023-04-08T13:06:06;5.05;;;4.53;;
9334;SDS011;4706;41.844;26.082;2023-04-08T13:08:32;4.85;;;4.45;;
9334;SDS011;4706;41.844;26.082;2023-04-08T13:10:57;4.53;;;4.13;;
9334;SDS011;4706;41.844;26.082;2023-04-08T13:13:23;4.53;;;4.13;;
9334;SDS011;4706;41.844;26.082;2023-04-08T13:15:48;4.47;;;4.18;;
9334;SDS011;4706;41.844;26.082;2023-04-08T13:18:14;4.10;;;3.80;;
9334;SDS011;4706;41.844;26.082;2023-04-08T13:20:40;4.35;;;4.05;;
9334;SDS011;4706;41.844;26.082;2023-04-08T13:23:06;3.90;;;3.50;;
9334;SDS011;4706;41.844;26.082;2023-04-08T13:25:31;5.40;;;5.00;;
9334;SDS011;4706;41.844;26.082;2023-04-08T13:27:57;4.00;;;3.70;;
9334;SDS011;4706;41.844;26.082;2023-04-08T13:30:23;4.40;;;4.00;;
9334;SDS011;4706;41.844;26.082;2023-04-08T13:32:48;4.63;;;4.32;;
9334;SDS011;4706;41.844;26.082;2023-04-08T13:35:14;4.10;;;3.72;;
9334;SDS011;4706;41.844;26.082;2023-04-08T13:37:39;4.22;;;3.83;;
9334;SDS011;4706;41.844;26.082;2023-04-08T13:40:05;3.80;;;3.50;;
9334;SDS011;4706;41.844;26.082;2023-04-08T13:42:32;4.55;;;4.22;;
9334;SDS011;4706;41.844;26.082;2023-04-08T13:44:58;5.10;;;4.70;;
9334;SDS011;4706;41.844;26.082;2023-04-08T13:47:24;4.13;;;3.33;;
9334;SDS011;4706;41.844;26.082;2023-04-08T13:49:51;5.32;;;3.42;;
9334;SDS011;4706;41.844;26.082;2023-04-08T13:52:17;3.97;;;3.67;;
9334;SDS011;4706;41.844;26.082;2023-04-08T13:54:43;4.28;;;3.90;;
9334;SDS011;4706;41.844;26.082;2023-04-08T13:57:08;4.70;;;4.30;;
9334;SDS011;4706;41.844;26.082;2023-04-08T13:59:34;3.83;;;3.53;;
9334;SDS011;4706;41.844;26.082;2023-04-08T14:02:00;3.67;;;3.47;;
9334;SDS011;4706;41.844;26.082;2023-04-08T14:04:26;3.97;;;3.65;;
9334;SDS011;4706;41.844;26.082;2023-04-08T14:06:51;4.10;;;3.70;;
9334;SDS011;4706;41.844;26.082;2023-04-08T14:09:17;4.60;;;4.20;;
9334;SDS011;4706;41.844;26.082;2023-04-08T14:11:43;4.63;;;4.25;;
9334;SDS011;4706;41.844;26.082;2023-04-08T14:14:09;5.30;;;4.90;;
9334;SDS011;4706;41.844;26.082;2023-04-08T14:16:35;4.70;;;4.30;;
9334;SDS011;4706;41.844;26.082;2023-04-08T14:19:01;4.20;;;3.90;;
9334;SDS011;4706;41.844;26.082;2023-04-08T14:21:28;4.35;;;4.05;;
9334;SDS011;4706;41.844;26.082;2023-04-08T14:23:53;4.18;;;3.78;;
9334;SDS011;4706;41.844;26.082;2023-04-08T14:26:19;3.90;;;3.60;;
9334;SDS011;4706;41.844;26.082;2023-04-08T14:28:45;4.85;;;4.45;;
9334;SDS011;4706;41.844;26.082;2023-04-08T14:31:12;4.72;;;3.67;;
9334;SDS011;4706;41.844;26.082;2023-04-08T14:33:38;5.07;;;4.60;;
9334;SDS011;4706;41.844;26.082;2023-04-08T14:36:04;5.07;;;4.57;;
9334;SDS011;4706;41.844;26.082;2023-04-08T14:38:30;4.60;;;4.30;;
9334;SDS011;4706;41.844;26.082;2023-04-08T14:40:56;4.15;;;3.85;;
9334;SDS011;4706;41.844;26.082;2023-04-08T14:43:21;4.72;;;4.32;;
9334;SDS011;4706;41.844;26.082;2023-04-08T14:45:48;4.88;;;4.50;;
9334;SDS011;4706;41.844;26.082;2023-04-08T14:48:14;5.57;;;5.07;;
9334;SDS011;4706;41.844;26.082;2023-04-08T14:50:39;4.05;;;3.75;;
9334;SDS011;4706;41.844;26.082;2023-04-08T14:53:05;4.03;;;3.72;;
9334;SDS011;4706;41.844;26.082;2023-04-08T14:55:31;4.47;;;4.03;;
9334;SDS011;4706;41.844;26.082;2023-04-08T14:57:56;3.78;;;3.47;;
9334;SDS011;4706;41.844;26.082;2023-04-08T15:00:22;4.47;;;4.07;;
9334;SDS011;4706;41.844;26.082;2023-04-08T15:02:47;4.80;;;4.07;;
9334;SDS011;4706;41.844;26.082;2023-04-08T15:05:13;4.43;;;4.00;;
9334;SDS011;4706;41.844;26.082;2023-04-08T15:07:38;4.15;;;3.83;;
9334;SDS011;4706;41.844;26.082;2023-04-08T15:10:07;4.38;;;4.07;;
9334;SDS011;4706;41.844;26.082;2023-04-08T15:12:33;4.30;;;3.90;;
9334;SDS011;4706;41.844;26.082;2023-04-08T15:15:00;4.10;;;3.83;;
9334;SDS011;4706;41.844;26.082;2023-04-08T15:17:26;3.78;;;3.40;;